Tequesta, FL (33469)

4:59 PM EDT on June 03, 2015 (GMT -0400)
Rolling Hills | | Change Station
CLOSE
Current Station
Personal Weather Station
Location: Tequesta, FL
Elevation: 23 ft
Nearby Weather Stations

Elev 23 ft 26.99 °N, 80.09 °W | Updated 10 seconds ago

Mostly Cloudy
Mostly Cloudy
79.9 °F
Feels Like 83 °F
N
2.5
Wind Variable Wind from SE
Gusts 4.9 mph

Today
High -- | Low -- °F
--% Chance of Precip.
Yesterday
High -- | Low -- °F
Precip. -- in
6:26 AM 8:11 PM
Full, 98% visible
Pressure 29.92 in
Visibility 7.0 miles
Clouds Scattered Clouds 2800 ft
Mostly Cloudy 8000 ft
Heat Index 83 °F
Dew Point 71 °F
Humidity 74%
Rainfall 0.18 in
Snow Depth Not available.
UV 2.0 out of 12
Pollen .50 out of 12
Air Quality Not available.
Flu Activity Sporadic
METAR KSUA 032047Z 09010G15KT 7SM SCT028 BKN080 27/19 A2992

More Conditions Fewer Conditions

Pressure 29.92 in
Visibility 7.0 miles
Clouds Scattered Clouds 2800 ft
Mostly Cloudy 8000 ft
Heat Index 83 °F
Dew Point 71 °F
Humidity 74%
Rainfall 0.18 in
Snow Depth Not available.
UV 2.0 out of 12
Pollen .50 out of 12
Air Quality Not available.
Flu Activity Sporadic
METAR KSUA 032047Z 09010G15KT 7SM SCT028 BKN080 27/19 A2992

More Conditions Fewer Conditions

Nowcast | as of 2:53 PM EDT on June 3, 2015

Scattered showers and an isolated thunderstorm or two will continue across parts of South Florida through the late afternoon. Areas most likely to be affected by the rain will be south of a Everglades City to West Palm Beach line, including most of the Southeast Florida Metro area. As the afternoon progresses, the showers and thunderstorms will gradually shift to the west and affect more of Collier County. Over the Atlantic, more widespread rain and scattered thunderstorms will occur mainly over the waters off of southern Miami-Dade County stretching all way to the western Bahamas. Mariners in these areas can expect locally gusty winds and rough seas.

×

10-Day Weather Forecast

×

Almanac

Astronomy

Jun. 03, 2015 Rise Set
Actual Time
Civil Twilight
Nautical Twilight
Astronomical Twilight
Moon
Length of Visible Light
Length of Day
Tomorrow will be .
, % of the Moon is Illuminated

Today's Extremes

State Highs State Lows

Community

WunderPhotos

Upload Photos

1,826,279 photos uploaded!

WunderBlogs® & News

Nearby

Air Quality

  Air Quality AQ Index Pollutant
Not available.

Snow Depth

Station Depth Elevation

Earthquake Activity

City Distance Mag. Time & Date
Minimum magnitude displayed is 2.5.

Coastal Water Temperatures

Place Temperature

Stations

Nearby Weather Stations

Station Location Temp. Windchill Dew Point Humidity Wind Precip. Elev Updated Type